createdAt,value
2017-02-20T00:00:28.948Z,0
2017-02-20T00:02:52.539Z,0
2017-02-20T00:05:15.722Z,0
2017-02-20T00:07:38.990Z,0
2017-02-20T00:10:02.229Z,0
2017-02-20T00:12:25.874Z,0
2017-02-20T00:14:49.147Z,0
2017-02-20T00:17:12.601Z,0
2017-02-20T00:19:36.183Z,0
2017-02-20T00:21:59.856Z,0
2017-02-20T00:24:23.470Z,0
2017-02-20T00:26:47.915Z,0
2017-02-20T00:29:11.369Z,0
2017-02-20T00:31:34.887Z,0
2017-02-20T00:33:58.373Z,0
2017-02-20T00:36:21.851Z,0
2017-02-20T00:38:45.498Z,0
2017-02-20T00:41:11.057Z,0
2017-02-20T00:43:34.981Z,0
2017-02-20T00:45:58.553Z,0
2017-02-20T00:48:22.063Z,0
2017-02-20T00:50:46.427Z,0
2017-02-20T00:53:09.978Z,0
2017-02-20T00:55:34.297Z,0
2017-02-20T00:57:58.166Z,0
2017-02-20T01:00:21.518Z,0
2017-02-20T01:02:45.851Z,0
2017-02-20T01:05:09.360Z,0
2017-02-20T01:07:33.318Z,0
2017-02-20T01:09:56.528Z,0
2017-02-20T01:12:19.961Z,0
2017-02-20T01:14:43.327Z,0
2017-02-20T01:17:06.923Z,0
2017-02-20T01:19:30.596Z,0
2017-02-20T01:21:54.308Z,0
2017-02-20T01:24:17.575Z,0
2017-02-20T01:26:40.769Z,0
2017-02-20T01:29:04.180Z,0
2017-02-20T01:31:27.674Z,0
2017-02-20T01:33:51.100Z,0
2017-02-20T01:36:14.422Z,0
2017-02-20T01:38:37.717Z,0
2017-02-20T01:41:01.188Z,0
2017-02-20T01:43:16.366Z,0
2017-02-20T01:45:39.703Z,0
2017-02-20T01:48:02.980Z,0
2017-02-20T01:50:26.248Z,0
2017-02-20T01:52:49.462Z,0
2017-02-20T01:55:14.057Z,0
2017-02-20T01:57:38.397Z,0
2017-02-20T02:00:01.730Z,0
2017-02-20T02:02:24.800Z,0
2017-02-20T02:04:48.130Z,0
2017-02-20T02:07:11.507Z,0
2017-02-20T02:09:34.731Z,0
2017-02-20T02:11:58.133Z,0
2017-02-20T02:14:21.408Z,0
2017-02-20T02:16:44.961Z,0
2017-02-20T02:19:08.355Z,0
2017-02-20T02:23:34.995Z,0
2017-02-20T02:28:01.414Z,0
2017-02-20T02:30:26.768Z,0
2017-02-20T02:32:50.183Z,0
2017-02-20T02:35:13.688Z,0
2017-02-20T02:37:29.670Z,0
2017-02-20T02:39:52.882Z,0
2017-02-20T02:42:16.456Z,0
2017-02-20T02:44:41.041Z,0
2017-02-20T02:47:04.507Z,0
2017-02-20T02:49:29.819Z,0
2017-02-20T02:51:54.314Z,0
2017-02-20T02:54:17.643Z,0
2017-02-20T02:56:42.980Z,0
2017-02-20T02:59:09.267Z,0
2017-02-20T03:01:33.750Z,0
2017-02-20T03:03:57.024Z,0
2017-02-20T03:06:21.500Z,0
2017-02-20T03:08:44.874Z,0
2017-02-20T03:11:09.396Z,0
2017-02-20T03:13:37.552Z,0
2017-02-20T03:16:01.040Z,0
2017-02-20T03:18:25.608Z,0
2017-02-20T03:20:48.797Z,0
2017-02-20T03:23:12.777Z,0
2017-02-20T03:25:37.431Z,0
2017-02-20T03:28:00.818Z,0
2017-02-20T03:30:25.502Z,0
2017-02-20T03:32:38.229Z,0
2017-02-20T03:35:02.466Z,0
2017-02-20T03:37:25.951Z,0
2017-02-20T03:39:49.420Z,0
2017-02-20T03:42:13.171Z,0
2017-02-20T03:44:36.985Z,0
2017-02-20T03:47:03.735Z,0
2017-02-20T03:49:27.241Z,0
2017-02-20T03:51:50.962Z,0
2017-02-20T03:54:21.409Z,0
2017-02-20T03:56:44.927Z,0
2017-02-20T03:59:08.236Z,0
2017-02-20T04:01:31.606Z,0
2017-02-20T04:03:56.010Z,0
2017-02-20T04:06:19.950Z,0
2017-02-20T04:08:45.075Z,0
2017-02-20T04:11:09.645Z,0
2017-02-20T04:13:34.492Z,0
2017-02-20T04:15:57.760Z,0
2017-02-20T04:18:20.846Z,0
2017-02-20T04:20:44.131Z,0
2017-02-20T04:23:07.530Z,0
2017-02-20T04:25:30.862Z,0
2017-02-20T04:27:54.189Z,0
2017-02-20T04:30:17.792Z,0
2017-02-20T04:32:41.306Z,0
2017-02-20T04:35:04.498Z,0
2017-02-20T04:37:28.495Z,0
2017-02-20T04:39:51.086Z,0
2017-02-20T04:42:14.691Z,0
2017-02-20T04:44:38.890Z,0
2017-02-20T04:47:02.178Z,0
2017-02-20T04:49:25.487Z,0
2017-02-20T04:51:48.902Z,0
2017-02-20T04:54:12.983Z,0
2017-02-20T04:56:36.236Z,0
2017-02-20T04:58:59.593Z,0
2017-02-20T05:01:23.321Z,0
2017-02-20T05:03:46.889Z,0
2017-02-20T05:06:10.520Z,0
2017-02-20T05:08:33.948Z,0
2017-02-20T05:10:57.352Z,0
2017-02-20T05:13:22.132Z,0
2017-02-20T05:15:45.627Z,0
2017-02-20T05:18:08.913Z,0
2017-02-20T05:22:33.856Z,0
2017-02-20T05:24:57.358Z,0
2017-02-20T05:27:21.391Z,0
2017-02-20T05:29:45.603Z,0
2017-02-20T05:32:08.978Z,0
2017-02-20T05:34:32.599Z,0
2017-02-20T05:36:55.780Z,0
2017-02-20T05:39:19.165Z,0
2017-02-20T05:41:43.379Z,0
2017-02-20T05:43:55.246Z,0
2017-02-20T05:46:18.927Z,0
2017-02-20T05:48:34.205Z,0
2017-02-20T05:50:57.459Z,0
2017-02-20T05:53:20.830Z,0
2017-02-20T05:55:44.317Z,0
2017-02-20T05:58:08.176Z,0
2017-02-20T06:00:31.680Z,0
2017-02-20T06:02:55.019Z,4
2017-02-20T06:05:18.301Z,4
2017-02-20T06:07:41.463Z,4
2017-02-20T06:10:04.720Z,4
2017-02-20T06:12:28.045Z,12
2017-02-20T06:14:51.301Z,20
2017-02-20T06:17:14.891Z,28
2017-02-20T06:19:45.251Z,40
2017-02-20T06:22:09.355Z,56
2017-02-20T06:24:32.734Z,72
2017-02-20T06:26:56.069Z,92
2017-02-20T06:29:19.494Z,112
2017-02-20T06:31:42.900Z,144
2017-02-20T06:34:06.309Z,184
2017-02-20T06:36:29.830Z,232
2017-02-20T06:38:53.192Z,284
2017-02-20T06:41:17.411Z,332
2017-02-20T06:43:40.660Z,372
2017-02-20T06:46:04.021Z,400
2017-02-20T06:48:27.162Z,396
2017-02-20T06:50:50.444Z,432
2017-02-20T06:53:13.745Z,432
2017-02-20T06:55:25.691Z,464
2017-02-20T06:57:48.478Z,544
2017-02-20T07:00:12.249Z,480
2017-02-20T07:02:35.279Z,456
2017-02-20T07:04:58.723Z,524
2017-02-20T07:07:24.410Z,528
2017-02-20T07:09:47.687Z,548
2017-02-20T07:12:12.044Z,904
2017-02-20T07:14:35.301Z,800
2017-02-20T07:16:58.963Z,824
2017-02-20T07:19:24.213Z,936
2017-02-20T07:21:47.460Z,916
2017-02-20T07:24:19.110Z,388
2017-02-20T07:26:43.333Z,204
2017-02-20T07:29:06.694Z,180
2017-02-20T07:31:31.501Z,196
2017-02-20T07:33:55.984Z,184
2017-02-20T07:36:21.680Z,176
2017-02-20T07:38:52.158Z,196
2017-02-20T07:41:15.810Z,228
2017-02-20T07:43:39.341Z,300
2017-02-20T07:45:50.213Z,356
2017-02-20T07:48:13.301Z,452
2017-02-20T07:50:52.713Z,492
2017-02-20T07:53:15.979Z,436
2017-02-20T07:55:39.721Z,324
2017-02-20T07:58:03.521Z,304
2017-02-20T08:00:26.971Z,276
2017-02-20T08:02:50.666Z,292
2017-02-20T08:05:14.106Z,332
2017-02-20T08:07:39.369Z,384
2017-02-20T08:11:45.923Z,488
2017-02-20T08:14:09.838Z,432
2017-02-20T08:16:33.698Z,428
2017-02-20T08:18:56.826Z,496
2017-02-20T08:21:20.659Z,512
2017-02-20T08:23:43.739Z,664
2017-02-20T08:26:06.989Z,632
2017-02-20T08:28:30.243Z,596
2017-02-20T08:30:53.513Z,600
2017-02-20T08:33:16.727Z,320
2017-02-20T08:35:41.362Z,236
2017-02-20T08:38:11.113Z,200
2017-02-20T08:40:35.166Z,208
2017-02-20T08:42:58.756Z,256
2017-02-20T08:45:22.543Z,308
2017-02-20T08:47:46.702Z,308
2017-02-20T08:50:10.421Z,272
2017-02-20T08:52:34.266Z,268
2017-02-20T08:54:59.005Z,280
2017-02-20T08:57:22.454Z,228
2017-02-20T08:59:45.937Z,224
2017-02-20T09:02:10.135Z,244
2017-02-20T09:04:34.889Z,252
2017-02-20T09:06:51.204Z,328
2017-02-20T09:09:18.632Z,384
2017-02-20T09:11:42.506Z,448
2017-02-20T09:14:06.933Z,620
2017-02-20T09:16:30.294Z,656
2017-02-20T09:18:55.161Z,696
2017-02-20T09:21:19.483Z,672
2017-02-20T09:23:42.769Z,760
2017-02-20T09:26:06.158Z,736
2017-02-20T09:28:29.808Z,612
2017-02-20T09:30:46.667Z,480
2017-02-20T09:33:10.908Z,436
2017-02-20T09:35:34.517Z,548
2017-02-20T09:37:58.428Z,684
2017-02-20T09:40:24.841Z,712
2017-02-20T09:42:55.708Z,648
2017-02-20T09:45:20.845Z,644
2017-02-20T09:47:55.591Z,788
2017-02-20T09:50:19.984Z,708
2017-02-20T09:52:44.064Z,624
2017-02-20T09:55:07.407Z,356
2017-02-20T09:57:23.276Z,272
2017-02-20T09:59:47.376Z,256
2017-02-20T10:02:11.947Z,380
2017-02-20T10:04:35.307Z,436
2017-02-20T10:06:52.330Z,416
2017-02-20T10:09:22.484Z,476
2017-02-20T10:11:46.146Z,468
2017-02-20T10:14:09.587Z,488
2017-02-20T10:16:33.438Z,556
2017-02-20T10:18:57.868Z,528
2017-02-20T10:21:21.491Z,628
2017-02-20T10:23:45.736Z,548
2017-02-20T10:26:10.064Z,548
2017-02-20T10:28:20.213Z,512
2017-02-20T10:30:43.497Z,464
2017-02-20T10:33:08.138Z,500
2017-02-20T10:35:33.132Z,500
2017-02-20T10:37:57.147Z,416
2017-02-20T10:40:20.680Z,456
2017-02-20T10:42:45.194Z,532
2017-02-20T10:45:10.522Z,456
2017-02-20T10:47:34.235Z,464
2017-02-20T10:49:58.653Z,500
2017-02-20T10:52:22.181Z,788
2017-02-20T10:54:46.948Z,1120
2017-02-20T10:57:10.378Z,1136
2017-02-20T10:59:33.949Z,1436
2017-02-20T11:01:58.687Z,1688
2017-02-20T11:04:23.044Z,2076
2017-02-20T11:06:46.899Z,2436
2017-02-20T11:09:10.572Z,3036
2017-02-20T11:11:35.212Z,2672
2017-02-20T11:13:59.238Z,2408
2017-02-20T11:16:10.220Z,2392
2017-02-20T11:18:34.356Z,2596
2017-02-20T11:20:57.876Z,3760
2017-02-20T11:23:21.821Z,3312
2017-02-20T11:25:45.531Z,3116
2017-02-20T11:28:15.734Z,3020
2017-02-20T11:30:39.432Z,3220
2017-02-20T11:33:03.908Z,2416
2017-02-20T11:35:28.873Z,1712
2017-02-20T11:37:54.464Z,1604
2017-02-20T11:40:24.718Z,1636
2017-02-20T11:42:48.242Z,1576
2017-02-20T11:45:12.722Z,1436
2017-02-20T11:47:37.576Z,1252
2017-02-20T11:50:03.179Z,1164
2017-02-20T11:52:27.852Z,1156
2017-02-20T11:54:58.148Z,1176
2017-02-20T11:57:24.693Z,1192
2017-02-20T11:59:49.221Z,1140
2017-02-20T12:04:15.969Z,1128
2017-02-20T12:06:55.230Z,1308
2017-02-20T12:09:18.861Z,1524
2017-02-20T12:11:43.848Z,1340
2017-02-20T12:14:00.886Z,1176
2017-02-20T12:16:33.707Z,1116
2017-02-20T12:18:59.406Z,936
2017-02-20T12:21:32.073Z,896
2017-02-20T12:23:56.603Z,988
2017-02-20T12:26:21.079Z,904
2017-02-20T12:28:44.827Z,824
2017-02-20T12:31:08.341Z,740
2017-02-20T12:33:31.953Z,776
2017-02-20T12:36:03.452Z,772
2017-02-20T12:38:26.768Z,744
2017-02-20T12:40:50.617Z,796
2017-02-20T12:43:14.359Z,768
2017-02-20T12:45:38.790Z,776
2017-02-20T12:48:09.727Z,752
2017-02-20T12:50:33.142Z,688
2017-02-20T12:52:56.793Z,748
2017-02-20T12:55:21.653Z,692
2017-02-20T12:57:46.617Z,716
2017-02-20T13:00:10.481Z,760
2017-02-20T13:02:40.340Z,760
2017-02-20T13:04:55.603Z,712
2017-02-20T13:07:25.728Z,668
2017-02-20T13:09:49.487Z,704
2017-02-20T13:12:12.906Z,652
2017-02-20T13:14:36.250Z,764
2017-02-20T13:17:07.989Z,748
2017-02-20T13:19:40.856Z,784
2017-02-20T13:22:05.544Z,796
2017-02-20T13:24:30.321Z,724
2017-02-20T13:26:55.350Z,692
2017-02-20T13:29:26.257Z,636
2017-02-20T13:31:49.807Z,584
2017-02-20T13:34:20.789Z,508
2017-02-20T13:36:46.274Z,476
2017-02-20T13:40:47.053Z,476
2017-02-20T13:44:47.530Z,516
2017-02-20T13:47:11.376Z,516
2017-02-20T13:49:43.851Z,516
2017-02-20T13:52:06.594Z,492
2017-02-20T13:54:30.231Z,476
2017-02-20T13:56:55.874Z,496
2017-02-20T13:59:21.292Z,480
2017-02-20T14:01:53.796Z,468
2017-02-20T14:04:24.929Z,452
2017-02-20T14:06:55.325Z,400
2017-02-20T14:09:19.310Z,380
2017-02-20T14:13:22.010Z,360
2017-02-20T14:15:48.547Z,340
2017-02-20T14:18:11.928Z,312
2017-02-20T14:20:37.527Z,320
2017-02-20T14:23:03.044Z,292
2017-02-20T14:25:28.652Z,288
2017-02-20T14:27:53.548Z,304
2017-02-20T14:30:17.005Z,292
2017-02-20T14:32:47.492Z,264
2017-02-20T14:35:13.921Z,272
2017-02-20T14:37:45.179Z,256
2017-02-20T14:40:16.361Z,300
2017-02-20T14:42:49.142Z,332
2017-02-20T14:45:07.418Z,316
2017-02-20T14:47:30.844Z,300
2017-02-20T14:49:54.122Z,284
2017-02-20T14:52:17.574Z,256
2017-02-20T14:54:40.985Z,212
2017-02-20T14:57:04.276Z,212
2017-02-20T14:59:27.637Z,212
2017-02-20T15:01:51.020Z,240
2017-02-20T15:04:14.374Z,256
2017-02-20T15:06:37.734Z,248
2017-02-20T15:09:01.108Z,256
2017-02-20T15:11:24.362Z,268
2017-02-20T15:13:47.679Z,272
2017-02-20T15:16:11.140Z,248
2017-02-20T15:18:34.570Z,236
2017-02-20T15:20:57.940Z,240
2017-02-20T15:23:21.286Z,228
2017-02-20T15:25:44.660Z,200
2017-02-20T15:30:09.741Z,184
2017-02-20T15:32:33.266Z,176
2017-02-20T15:34:56.729Z,168
2017-02-20T15:37:21.121Z,176
2017-02-20T15:39:44.732Z,196
2017-02-20T15:42:08.320Z,188
2017-02-20T15:44:31.955Z,204
2017-02-20T15:46:55.049Z,172
2017-02-20T15:49:18.422Z,172
2017-02-20T15:51:41.769Z,188
2017-02-20T15:55:57.912Z,204
2017-02-20T15:58:13.527Z,200
2017-02-20T16:00:36.946Z,164
2017-02-20T16:02:51.862Z,164
2017-02-20T16:05:16.233Z,164
2017-02-20T16:07:48.181Z,172
2017-02-20T16:10:11.571Z,160
2017-02-20T16:12:34.892Z,148
2017-02-20T16:14:58.247Z,132
2017-02-20T16:17:22.997Z,108
2017-02-20T16:19:46.032Z,96
2017-02-20T16:22:09.373Z,88
2017-02-20T16:24:24.378Z,80
2017-02-20T16:26:47.707Z,76
2017-02-20T16:29:11.653Z,68
2017-02-20T16:31:35.008Z,56
2017-02-20T16:33:58.370Z,48
2017-02-20T16:36:21.688Z,40
2017-02-20T16:38:45.053Z,36
2017-02-20T16:40:54.696Z,36
2017-02-20T16:43:18.008Z,28
2017-02-20T16:45:32.937Z,24
2017-02-20T16:49:48.998Z,20
2017-02-20T16:52:12.317Z,12
2017-02-20T16:54:35.626Z,12
2017-02-20T16:56:50.560Z,8
2017-02-20T16:59:14.855Z,8
2017-02-20T17:01:38.180Z,4
2017-02-20T17:04:01.494Z,4
2017-02-20T17:06:24.865Z,4
2017-02-20T17:08:48.212Z,4
2017-02-20T17:11:12.639Z,0
2017-02-20T17:13:36.207Z,0
2017-02-20T17:15:59.519Z,0
2017-02-20T17:18:22.947Z,0
2017-02-20T17:20:46.253Z,0
2017-02-20T17:23:09.528Z,0
2017-02-20T17:25:32.850Z,0
2017-02-20T17:27:56.145Z,0
2017-02-20T17:30:19.384Z,0
2017-02-20T17:32:42.638Z,0
2017-02-20T17:35:20.944Z,0
2017-02-20T17:37:44.808Z,0
2017-02-20T17:40:10.621Z,0
2017-02-20T17:42:33.919Z,0
2017-02-20T17:44:57.515Z,0
2017-02-20T17:47:21.027Z,0
2017-02-20T17:49:44.435Z,0
2017-02-20T17:52:09.807Z,0
2017-02-20T17:54:33.232Z,0
2017-02-20T17:56:58.639Z,0
2017-02-20T17:59:22.554Z,0
2017-02-20T18:03:55.432Z,0
2017-02-20T18:06:18.786Z,0
2017-02-20T18:08:42.055Z,0
2017-02-20T18:11:06.516Z,0
2017-02-20T18:13:29.890Z,0
2017-02-20T18:15:53.374Z,0
2017-02-20T18:18:16.540Z,0
2017-02-20T18:20:39.910Z,0
2017-02-20T18:23:03.161Z,0
2017-02-20T18:25:26.504Z,0
2017-02-20T18:27:51.379Z,0
2017-02-20T18:30:16.625Z,0
2017-02-20T18:32:39.929Z,0
2017-02-20T18:35:03.191Z,0
2017-02-20T18:37:26.657Z,0
2017-02-20T18:39:50.259Z,0
2017-02-20T18:42:13.697Z,0
2017-02-20T18:44:36.899Z,0
2017-02-20T18:47:00.195Z,0
2017-02-20T18:49:24.604Z,0
2017-02-20T18:51:48.342Z,0
2017-02-20T18:54:11.825Z,0
2017-02-20T18:56:35.138Z,0
2017-02-20T18:58:58.566Z,0
2017-02-20T19:01:22.823Z,0
2017-02-20T19:03:46.134Z,0
2017-02-20T19:06:09.391Z,0
2017-02-20T19:08:32.631Z,0
2017-02-20T19:10:56.984Z,0
2017-02-20T19:13:20.297Z,0
2017-02-20T19:15:43.679Z,0
2017-02-20T19:18:06.928Z,0
2017-02-20T19:20:30.153Z,0
2017-02-20T19:22:55.607Z,0
2017-02-20T19:25:29.039Z,0
2017-02-20T19:27:52.438Z,0
2017-02-20T19:30:15.785Z,0
2017-02-20T19:32:41.029Z,0
2017-02-20T19:36:41.256Z,0
2017-02-20T19:39:05.537Z,0
2017-02-20T19:41:28.862Z,0
2017-02-20T19:45:28.938Z,0
2017-02-20T19:47:52.182Z,0
2017-02-20T19:50:22.300Z,0
2017-02-20T19:54:24.316Z,0
2017-02-20T19:56:48.781Z,0
2017-02-20T19:59:28.137Z,0
2017-02-20T20:01:51.673Z,0
2017-02-20T20:04:16.354Z,0
2017-02-20T20:06:57.286Z,0
2017-02-20T20:09:21.866Z,0
2017-02-20T20:11:48.837Z,0
2017-02-20T20:14:12.421Z,0
2017-02-20T20:16:50.539Z,0
2017-02-20T20:19:14.021Z,0
2017-02-20T20:21:43.882Z,0
2017-02-20T20:24:07.393Z,0
2017-02-20T20:28:07.722Z,0
2017-02-20T20:30:31.704Z,0
2017-02-20T20:32:55.016Z,0
2017-02-20T20:35:18.729Z,0
2017-02-20T20:37:44.636Z,0
2017-02-20T20:40:07.812Z,0
2017-02-20T20:42:31.187Z,0
2017-02-20T20:45:03.436Z,0
2017-02-20T20:47:24.477Z,0
2017-02-20T20:49:49.132Z,0
2017-02-20T20:52:13.283Z,0
2017-02-20T20:54:37.888Z,0
2017-02-20T20:57:01.821Z,0
2017-02-20T20:59:25.491Z,0
2017-02-20T21:01:49.620Z,0
2017-02-20T21:04:13.568Z,0
2017-02-20T21:08:38.530Z,0
2017-02-20T21:11:08.467Z,0
2017-02-20T21:13:31.890Z,0
2017-02-20T21:15:55.324Z,0
2017-02-20T21:18:21.707Z,0
2017-02-20T21:20:45.214Z,0
2017-02-20T21:23:09.749Z,0
2017-02-20T21:25:35.505Z,0
2017-02-20T21:27:59.400Z,0
2017-02-20T21:30:24.201Z,0
2017-02-20T21:32:49.169Z,0
2017-02-20T21:35:12.679Z,0
2017-02-20T21:37:36.443Z,0
2017-02-20T21:40:00.368Z,0
2017-02-20T21:42:24.101Z,0
2017-02-20T21:44:47.283Z,0
2017-02-20T21:47:10.840Z,0
2017-02-20T21:49:34.414Z,0
2017-02-20T21:52:04.718Z,0
2017-02-20T21:54:28.771Z,0
2017-02-20T21:56:52.805Z,0
2017-02-20T21:59:16.433Z,0
2017-02-20T22:01:40.966Z,0
2017-02-20T22:04:04.555Z,0
2017-02-20T22:06:29.038Z,0
2017-02-20T22:08:44.970Z,0
2017-02-20T22:11:09.562Z,0
2017-02-20T22:13:35.306Z,0
2017-02-20T22:15:58.868Z,0
2017-02-20T22:18:24.495Z,0
2017-02-20T22:20:48.299Z,0
2017-02-20T22:23:12.502Z,0
2017-02-20T22:25:37.319Z,0
2017-02-20T22:29:40.816Z,0
2017-02-20T22:32:05.567Z,0
2017-02-20T22:34:30.219Z,0
2017-02-20T22:37:04.712Z,0
2017-02-20T22:39:29.862Z,0
2017-02-20T22:42:03.861Z,0
2017-02-20T22:46:20.196Z,0
2017-02-20T22:48:44.332Z,0
2017-02-20T22:51:07.953Z,0
2017-02-20T22:53:31.483Z,0
2017-02-20T22:55:55.090Z,0
2017-02-20T22:58:18.656Z,0
2017-02-20T23:00:43.561Z,0
2017-02-20T23:03:07.002Z,0
2017-02-20T23:05:30.595Z,0
2017-02-20T23:07:54.003Z,0
2017-02-20T23:10:18.474Z,0
2017-02-20T23:12:42.272Z,0
2017-02-20T23:15:06.749Z,0
2017-02-20T23:17:30.825Z,0
2017-02-20T23:19:54.246Z,0
2017-02-20T23:22:17.682Z,0
2017-02-20T23:24:41.050Z,0
2017-02-20T23:27:04.298Z,0
2017-02-20T23:29:27.815Z,0
2017-02-20T23:31:51.042Z,0
2017-02-20T23:34:14.706Z,0
2017-02-20T23:36:38.179Z,0
2017-02-20T23:39:02.667Z,0
2017-02-20T23:41:25.941Z,0
2017-02-20T23:43:51.391Z,0
2017-02-20T23:46:14.834Z,0
2017-02-20T23:48:39.067Z,0
2017-02-20T23:51:03.467Z,0
2017-02-20T23:53:28.025Z,0
2017-02-20T23:55:51.477Z,0
2017-02-20T23:58:15.132Z,0
